Time;durP1;ratioP1;P1;durP2;ratioP2;P2;SDS_P1;SDS_P2;PMS_P1;PMS_P2;Temp;Humidity;BMP_temperature;BMP_pressure;BME280_temperature;BME280_humidity;BME280_pressure;Samples;Min_cycle;Max_cycle;Signal;HPM_P1;HPM_P2
2023/09/22 00:01:46;;;;;;;56.50;2.30;;;;;;;;;;5134384;27;20440;-70
2023/09/22 00:04:13;;;;;;;56.47;2.30;;;;;;;;;;5134010;27;20536;-69
2023/09/22 00:06:41;;;;;;;56.47;2.30;;;;;;;;;;5133792;27;20449;-71
2023/09/22 00:09:09;;;;;;;56.37;2.40;;;;;;;;;;5133574;27;20445;-70
2023/09/22 00:11:36;;;;;;;57.00;2.40;;;;;;;;;;5134204;27;20880;-70
2023/09/22 00:14:04;;;;;;;56.67;2.27;;;;;;;;;;5133994;27;20544;-70
2023/09/22 00:16:34;;;;;;;56.37;2.40;;;;;;;;;;5133605;27;20447;-71
2023/09/22 00:19:05;;;;;;;56.50;2.20;;;;;;;;;;5133712;27;20456;-71
2023/09/22 00:21:32;;;;;;;56.87;3.17;;;;;;;;;;5133692;27;20806;-72
2023/09/22 00:23:59;;;;;;;56.53;2.30;;;;;;;;;;5133840;27;20445;-71
2023/09/22 00:26:26;;;;;;;56.77;2.40;;;;;;;;;;5133609;27;20448;-70
2023/09/22 00:28:53;;;;;;;56.67;2.30;;;;;;;;;;5133630;27;20441;-70
2023/09/22 00:31:21;;;;;;;56.60;2.23;;;;;;;;;;5133594;27;20502;-71
2023/09/22 00:33:49;;;;;;;56.67;2.20;;;;;;;;;;5141689;27;20588;-71
2023/09/22 00:36:16;;;;;;;56.57;2.30;;;;;;;;;;5154390;27;20535;-70
2023/09/22 00:38:43;;;;;;;56.63;2.23;;;;;;;;;;5154127;27;20550;-71
2023/09/22 00:41:11;;;;;;;56.80;2.30;;;;;;;;;;5154101;27;20946;-71
2023/09/22 00:43:38;;;;;;;56.57;2.40;;;;;;;;;;5154049;27;20475;-69
2023/09/22 00:46:05;;;;;;;56.60;2.27;;;;;;;;;;5153893;27;20443;-70
2023/09/22 00:48:35;;;;;;;56.90;2.50;;;;;;;;;;5154172;27;20478;-70
2023/09/22 00:51:04;;;;;;;56.57;2.30;;;;;;;;;;5153630;27;20480;-71
2023/09/22 00:53:34;;;;;;;56.67;2.40;;;;;;;;;;5153927;27;20444;-70
2023/09/22 00:56:02;;;;;;;56.70;2.27;;;;;;;;;;5153797;27;20448;-70
2023/09/22 00:58:29;;;;;;;57.03;2.83;;;;;;;;;;5153561;27;20522;-70
2023/09/22 01:00:58;;;;;;;56.70;2.40;;;;;;;;;;5153676;27;20448;-69
2023/09/22 01:03:26;;;;;;;57.30;2.90;;;;;;;;;;5153930;27;20452;-70
2023/09/22 01:05:53;;;;;;;56.60;2.50;;;;;;;;;;5153534;27;20451;-70
2023/09/22 01:08:21;;;;;;;56.97;2.97;;;;;;;;;;5153362;27;20452;-70
2023/09/22 01:10:48;;;;;;;56.77;2.40;;;;;;;;;;5153526;27;20486;-70
2023/09/22 01:13:16;;;;;;;56.50;2.30;;;;;;;;;;5153319;27;20942;-70
2023/09/22 01:15:43;;;;;;;56.67;2.50;;;;;;;;;;5153278;27;20443;-69
2023/09/22 01:18:13;;;;;;;56.67;2.63;;;;;;;;;;5153280;27;20468;-70
2023/09/22 01:20:41;;;;;;;56.70;2.30;;;;;;;;;;5153469;27;20444;-70
2023/09/22 01:23:11;;;;;;;56.57;2.30;;;;;;;;;;5153277;27;20443;-69
2023/09/22 01:25:40;;;;;;;56.37;2.13;;;;;;;;;;5152802;27;20877;-69
2023/09/22 01:28:07;;;;;;;56.47;2.10;;;;;;;;;;5153067;27;20463;-70
2023/09/22 01:30:34;;;;;;;56.50;2.10;;;;;;;;;;5153312;27;20851;-69
2023/09/22 01:33:04;;;;;;;56.70;2.30;;;;;;;;;;5153248;27;20444;-69
2023/09/22 01:35:32;;;;;;;56.60;2.30;;;;;;;;;;5153350;27;20444;-69
2023/09/22 01:38:03;;;;;;;57.17;2.60;;;;;;;;;;5152485;27;20464;-69
2023/09/22 01:40:31;;;;;;;56.37;2.17;;;;;;;;;;5153120;27;20432;-69
2023/09/22 01:42:58;;;;;;;56.40;2.27;;;;;;;;;;5152964;27;20968;-69
2023/09/22 01:45:25;;;;;;;56.90;3.10;;;;;;;;;;5152983;27;20470;-69
2023/09/22 01:47:52;;;;;;;56.77;2.53;;;;;;;;;;5152689;27;20460;-69
2023/09/22 01:50:19;;;;;;;56.50;2.70;;;;;;;;;;5152417;27;20483;-69
2023/09/22 01:52:47;;;;;;;57.97;2.50;;;;;;;;;;5152779;27;20454;-69
2023/09/22 01:55:14;;;;;;;56.57;2.30;;;;;;;;;;5152479;27;20444;-69
2023/09/22 01:57:43;;;;;;;56.50;2.37;;;;;;;;;;5152517;27;20464;-70
2023/09/22 02:00:10;;;;;;;56.60;2.30;;;;;;;;;;5152528;27;20476;-69
2023/09/22 02:02:42;;;;;;;57.07;3.00;;;;;;;;;;5152793;27;20443;-70
2023/09/22 02:05:10;;;;;;;56.50;2.30;;;;;;;;;;5152867;27;20789;-70
2023/09/22 02:07:37;;;;;;;56.50;2.30;;;;;;;;;;5152526;27;20468;-70
2023/09/22 02:10:04;;;;;;;56.60;2.17;;;;;;;;;;5152857;27;20484;-69
2023/09/22 02:12:31;;;;;;;56.47;2.20;;;;;;;;;;5152681;27;20446;-70
2023/09/22 02:15:00;;;;;;;56.37;2.40;;;;;;;;;;5152300;27;20446;-70
2023/09/22 02:17:27;;;;;;;56.90;2.60;;;;;;;;;;5151924;27;20956;-70
2023/09/22 02:19:55;;;;;;;56.47;2.30;;;;;;;;;;5152348;27;20936;-69
2023/09/22 02:22:22;;;;;;;56.70;2.60;;;;;;;;;;5152509;27;20440;-70
2023/09/22 02:24:49;;;;;;;56.50;2.50;;;;;;;;;;5152567;27;20522;-70
2023/09/22 02:27:16;;;;;;;56.50;2.40;;;;;;;;;;5152196;27;20467;-70
2023/09/22 02:29:43;;;;;;;56.60;2.37;;;;;;;;;;5152108;27;20448;-70
2023/09/22 02:32:11;;;;;;;56.60;2.30;;;;;;;;;;5152222;27;20447;-70
2023/09/22 02:34:39;;;;;;;56.57;2.40;;;;;;;;;;5152549;27;20450;-70
2023/09/22 02:37:06;;;;;;;56.50;2.43;;;;;;;;;;5152422;27;20464;-70
2023/09/22 02:39:33;;;;;;;56.33;2.20;;;;;;;;;;5152249;27;20461;-70
2023/09/22 02:42:00;;;;;;;56.47;2.67;;;;;;;;;;5152375;27;20444;-70
2023/09/22 02:44:27;;;;;;;56.70;2.43;;;;;;;;;;5152354;27;20789;-70
2023/09/22 02:46:54;;;;;;;56.50;2.20;;;;;;;;;;5152326;27;20460;-70
2023/09/22 02:49:23;;;;;;;56.90;2.60;;;;;;;;;;5151713;27;20436;-69
2023/09/22 02:51:51;;;;;;;56.37;2.23;;;;;;;;;;5152300;27;20584;-69
2023/09/22 02:54:18;;;;;;;56.70;2.30;;;;;;;;;;5152192;27;20443;-70
2023/09/22 02:56:45;;;;;;;56.53;2.30;;;;;;;;;;5152162;27;20472;-70
2023/09/22 02:59:12;;;;;;;56.13;2.20;;;;;;;;;;5151894;27;20447;-70
2023/09/22 03:01:39;;;;;;;57.30;2.70;;;;;;;;;;5152031;27;20435;-69
2023/09/22 03:04:09;;;;;;;56.33;2.20;;;;;;;;;;5152198;27;20507;-70
2023/09/22 03:06:37;;;;;;;56.37;2.20;;;;;;;;;;5152121;27;20534;-70
2023/09/22 03:09:06;;;;;;;56.80;2.20;;;;;;;;;;5151864;27;20447;-70
2023/09/22 03:11:33;;;;;;;56.37;2.13;;;;;;;;;;5151872;27;20614;-68
2023/09/22 03:14:00;;;;;;;56.33;2.20;;;;;;;;;;5151920;27;21007;-70
2023/09/22 03:16:27;;;;;;;56.23;2.30;;;;;;;;;;5122848;28;20497;-70
2023/09/22 03:18:54;;;;;;;56.27;2.30;;;;;;;;;;5131213;27;20443;-70
2023/09/22 03:21:22;;;;;;;56.33;2.40;;;;;;;;;;5131135;27;20437;-70
2023/09/22 03:23:51;;;;;;;57.03;2.67;;;;;;;;;;5131234;27;20444;-70
2023/09/22 03:26:19;;;;;;;57.10;3.07;;;;;;;;;;5131130;27;20470;-70
2023/09/22 03:28:46;;;;;;;56.40;2.27;;;;;;;;;;5133633;27;20460;-70
2023/09/22 03:31:13;;;;;;;56.53;2.30;;;;;;;;;;5135150;27;20480;-70
2023/09/22 03:33:41;;;;;;;56.33;2.40;;;;;;;;;;5134746;27;20444;-70
2023/09/22 03:36:10;;;;;;;56.43;2.37;;;;;;;;;;5134512;27;20451;-70
2023/09/22 03:38:37;;;;;;;56.27;2.33;;;;;;;;;;5134372;27;20972;-70
2023/09/22 03:41:06;;;;;;;56.40;2.30;;;;;;;;;;5134780;27;20775;-69
2023/09/22 03:43:33;;;;;;;56.57;2.30;;;;;;;;;;5134764;27;20467;-70
2023/09/22 03:46:00;;;;;;;56.43;2.30;;;;;;;;;;5134843;27;20442;-70
2023/09/22 03:48:28;;;;;;;56.27;2.23;;;;;;;;;;5134310;27;20559;-70
2023/09/22 03:50:55;;;;;;;56.70;2.20;;;;;;;;;;5134645;27;20491;-70
2023/09/22 03:53:22;;;;;;;56.50;2.20;;;;;;;;;;5134390;27;20495;-69
2023/09/22 03:55:50;;;;;;;56.47;2.30;;;;;;;;;;5134447;27;20480;-70
2023/09/22 03:58:19;;;;;;;56.40;2.30;;;;;;;;;;5134287;27;20469;-70
2023/09/22 04:00:46;;;;;;;56.70;2.27;;;;;;;;;;5134285;27;20437;-70
2023/09/22 04:03:15;;;;;;;56.40;2.27;;;;;;;;;;5134196;27;20496;-70
2023/09/22 04:05:42;;;;;;;56.37;2.23;;;;;;;;;;5139483;27;20834;-70
2023/09/22 04:08:10;;;;;;;56.30;2.00;;;;;;;;;;5154712;27;21031;-70
2023/09/22 04:10:37;;;;;;;56.33;2.03;;;;;;;;;;5154604;27;20515;-71
2023/09/22 04:13:05;;;;;;;56.47;2.20;;;;;;;;;;5154566;27;20444;-70
2023/09/22 04:15:33;;;;;;;56.40;2.40;;;;;;;;;;5154578;27;20493;-70
2023/09/22 04:18:01;;;;;;;56.37;2.40;;;;;;;;;;5154612;27;20464;-70
2023/09/22 04:20:29;;;;;;;56.40;2.20;;;;;;;;;;5154490;27;20452;-70
2023/09/22 04:22:58;;;;;;;56.37;2.13;;;;;;;;;;5154472;27;20450;-70
2023/09/22 04:25:31;;;;;;;56.47;2.30;;;;;;;;;;5154436;27;20472;-70
2023/09/22 04:28:07;;;;;;;56.40;2.20;;;;;;;;;;5154013;27;20466;-70
2023/09/22 04:30:36;;;;;;;56.37;2.10;;;;;;;;;;5154401;27;20479;-70
2023/09/22 04:33:03;;;;;;;57.10;2.83;;;;;;;;;;5154208;27;20935;-70
2023/09/22 04:35:32;;;;;;;56.33;2.13;;;;;;;;;;5154345;27;20435;-71
2023/09/22 04:38:00;;;;;;;57.17;2.20;;;;;;;;;;5153908;27;20486;-70
2023/09/22 04:40:30;;;;;;;56.47;2.27;;;;;;;;;;5154002;27;20468;-71
2023/09/22 04:42:57;;;;;;;56.47;2.20;;;;;;;;;;5154137;27;20469;-69
2023/09/22 04:45:24;;;;;;;56.50;2.40;;;;;;;;;;5154088;27;20442;-71
2023/09/22 04:47:53;;;;;;;56.27;2.23;;;;;;;;;;5153638;27;20467;-70
2023/09/22 04:50:21;;;;;;;56.50;2.30;;;;;;;;;;5153870;27;20461;-71
2023/09/22 04:52:49;;;;;;;56.47;2.10;;;;;;;;;;5153892;27;20440;-71
2023/09/22 04:55:16;;;;;;;56.40;2.17;;;;;;;;;;5153838;27;20478;-70
2023/09/22 04:57:43;;;;;;;56.37;2.10;;;;;;;;;;5153914;27;20818;-70
2023/09/22 05:00:16;;;;;;;60.40;3.90;;;;;;;;;;5153619;27;20458;-72
2023/09/22 05:02:43;;;;;;;56.80;2.50;;;;;;;;;;5153977;27;20500;-72
2023/09/22 05:05:12;;;;;;;56.27;2.20;;;;;;;;;;5153509;27;20861;-68
2023/09/22 05:07:39;;;;;;;56.37;2.17;;;;;;;;;;5153322;27;20460;-71
2023/09/22 05:10:07;;;;;;;58.17;3.17;;;;;;;;;;5153539;27;20808;-70
2023/09/22 05:12:34;;;;;;;56.47;2.37;;;;;;;;;;5153272;27;20483;-70
2023/09/22 05:15:02;;;;;;;56.90;2.40;;;;;;;;;;5153661;27;20879;-71
2023/09/22 05:17:29;;;;;;;56.27;2.20;;;;;;;;;;5153167;27;20455;-71
2023/09/22 05:19:56;;;;;;;56.23;2.30;;;;;;;;;;5153388;27;20804;-70
2023/09/22 05:22:24;;;;;;;56.27;2.50;;;;;;;;;;5153355;27;20448;-71
2023/09/22 05:24:51;;;;;;;56.47;2.40;;;;;;;;;;5153350;27;20447;-70
2023/09/22 05:27:18;;;;;;;56.33;2.20;;;;;;;;;;5153013;27;20474;-70
2023/09/22 05:29:46;;;;;;;56.77;2.37;;;;;;;;;;5139485;27;20625;-71
2023/09/22 05:32:13;;;;;;;56.33;2.13;;;;;;;;;;5132394;27;20813;-70
2023/09/22 05:34:40;;;;;;;56.20;2.30;;;;;;;;;;5132224;27;20444;-70
2023/09/22 05:37:07;;;;;;;56.37;2.20;;;;;;;;;;5132135;27;20980;-70
2023/09/22 05:39:37;;;;;;;56.37;2.37;;;;;;;;;;5132202;27;20858;-70
2023/09/22 05:42:04;;;;;;;56.60;2.27;;;;;;;;;;5132613;27;20445;-70
2023/09/22 05:44:32;;;;;;;56.37;2.30;;;;;;;;;;5131928;27;20449;-70
2023/09/22 05:47:00;;;;;;;56.30;2.30;;;;;;;;;;5132155;27;20471;-70
2023/09/22 05:49:28;;;;;;;56.40;2.20;;;;;;;;;;5131911;27;20448;-71
2023/09/22 05:51:55;;;;;;;56.60;2.20;;;;;;;;;;5131355;27;20567;-70
2023/09/22 05:54:22;;;;;;;59.73;2.43;;;;;;;;;;5132144;27;20968;-70
2023/09/22 05:56:50;;;;;;;56.57;2.20;;;;;;;;;;5138721;27;20482;-71
2023/09/22 05:59:17;;;;;;;56.27;2.10;;;;;;;;;;5143514;27;20445;-71
2023/09/22 06:01:46;;;;;;;56.43;2.20;;;;;;;;;;5146666;27;20457;-71
2023/09/22 06:04:13;;;;;;;56.47;2.30;;;;;;;;;;5147623;27;20948;-72
2023/09/22 06:06:42;;;;;;;56.70;2.60;;;;;;;;;;5146364;27;20445;-70
2023/09/22 06:09:10;;;;;;;60.60;2.40;;;;;;;;;;5145312;27;20445;-70
2023/09/22 06:11:38;;;;;;;56.37;2.63;;;;;;;;;;5146813;27;20477;-71
2023/09/22 06:14:07;;;;;;;56.57;2.30;;;;;;;;;;5144458;27;20449;-71
2023/09/22 06:16:34;;;;;;;56.57;2.40;;;;;;;;;;5148169;27;20445;-69
2023/09/22 06:19:02;;;;;;;56.50;2.50;;;;;;;;;;5149915;27;20448;-70
2023/09/22 06:21:30;;;;;;;56.23;2.20;;;;;;;;;;5148155;27;20506;-70
2023/09/22 06:23:57;;;;;;;56.40;2.60;;;;;;;;;;5146447;27;20445;-69
2023/09/22 06:26:24;;;;;;;56.50;2.20;;;;;;;;;;5145522;27;20497;-70
2023/09/22 06:28:51;;;;;;;56.37;2.40;;;;;;;;;;5144152;27;20451;-70
2023/09/22 06:31:20;;;;;;;56.37;2.60;;;;;;;;;;5146734;27;20500;-70
2023/09/22 06:33:49;;;;;;;56.50;2.20;;;;;;;;;;5146526;27;20448;-70
2023/09/22 06:36:17;;;;;;;56.70;2.40;;;;;;;;;;5145246;27;20474;-71
2023/09/22 06:38:44;;;;;;;56.17;2.20;;;;;;;;;;5145359;27;20480;-71
2023/09/22 06:41:17;;;;;;;56.30;2.20;;;;;;;;;;5140439;27;20555;-71
2023/09/22 06:43:44;;;;;;;56.47;2.20;;;;;;;;;;5132824;27;20459;-71
2023/09/22 06:46:11;;;;;;;56.27;2.30;;;;;;;;;;5131879;27;20449;-70
2023/09/22 06:48:40;;;;;;;56.40;2.20;;;;;;;;;;5132180;27;20468;-71
2023/09/22 06:51:13;;;;;;;56.23;2.10;;;;;;;;;;5131999;27;20465;-70
2023/09/22 06:53:40;;;;;;;56.40;2.20;;;;;;;;;;5132001;27;20494;-70
2023/09/22 06:56:09;;;;;;;56.27;2.40;;;;;;;;;;5137815;27;20444;-70
2023/09/22 06:58:36;;;;;;;56.60;2.60;;;;;;;;;;5134324;27;20555;-70
2023/09/22 07:01:10;;;;;;;56.30;2.43;;;;;;;;;;5131970;27;20447;-71
2023/09/22 07:03:38;;;;;;;56.37;2.33;;;;;;;;;;5127414;27;20467;-70
2023/09/22 07:06:09;;;;;;;56.20;2.50;;;;;;;;;;5135550;27;20470;-71
2023/09/22 07:08:36;;;;;;;56.37;2.40;;;;;;;;;;5135514;27;20460;-70
2023/09/22 07:11:03;;;;;;;56.63;2.60;;;;;;;;;;5137871;27;20440;-71
2023/09/22 07:13:31;;;;;;;56.37;2.20;;;;;;;;;;5143575;27;20486;-70
2023/09/22 07:15:58;;;;;;;56.37;2.20;;;;;;;;;;5135648;27;21113;-71
2023/09/22 07:18:25;;;;;;;56.23;2.30;;;;;;;;;;5135003;27;20460;-70
2023/09/22 07:20:53;;;;;;;56.27;2.27;;;;;;;;;;5135272;27;20440;-70
2023/09/22 07:23:21;;;;;;;56.20;2.27;;;;;;;;;;5135293;27;20447;-71
2023/09/22 07:25:59;;;;;;;56.37;2.30;;;;;;;;;;5134971;27;20795;-71
2023/09/22 07:28:26;;;;;;;56.30;2.40;;;;;;;;;;5134935;27;20513;-71
2023/09/22 07:30:53;;;;;;;56.20;2.00;;;;;;;;;;5135416;27;20861;-71
2023/09/22 07:33:20;;;;;;;56.07;2.20;;;;;;;;;;5134922;27;20480;-70
2023/09/22 07:35:48;;;;;;;55.90;2.00;;;;;;;;;;5135004;27;20444;-71
2023/09/22 07:38:16;;;;;;;56.20;2.23;;;;;;;;;;5134849;27;20469;-70
2023/09/22 07:40:44;;;;;;;56.47;2.20;;;;;;;;;;5135283;27;20451;-71
2023/09/22 07:43:12;;;;;;;56.40;2.20;;;;;;;;;;5135096;27;20539;-71
2023/09/22 07:45:39;;;;;;;56.37;2.20;;;;;;;;;;5126413;27;20489;-70
2023/09/22 07:48:06;;;;;;;56.57;2.50;;;;;;;;;;5136290;27;20487;-70
2023/09/22 07:50:34;;;;;;;56.50;2.37;;;;;;;;;;5140162;27;21593;-71
2023/09/22 07:53:02;;;;;;;56.07;2.10;;;;;;;;;;5155305;27;20483;-70
2023/09/22 07:55:29;;;;;;;56.07;2.50;;;;;;;;;;5155190;27;20940;-71
2023/09/22 07:57:58;;;;;;;56.27;2.40;;;;;;;;;;5155196;27;20456;-71
2023/09/22 08:00:26;;;;;;;56.47;2.30;;;;;;;;;;5155145;27;20440;-70
2023/09/22 08:02:53;;;;;;;56.37;2.50;;;;;;;;;;5155240;27;20542;-70
2023/09/22 08:05:20;;;;;;;56.50;2.30;;;;;;;;;;5154845;27;20440;-71
2023/09/22 08:07:48;;;;;;;56.57;2.80;;;;;;;;;;5155079;27;20554;-71
2023/09/22 08:10:15;;;;;;;56.23;2.30;;;;;;;;;;5154649;27;20448;-70
2023/09/22 08:12:44;;;;;;;56.47;2.60;;;;;;;;;;5162297;27;21021;-71
2023/09/22 08:15:14;;;;;;;56.57;2.47;;;;;;;;;;5158613;27;20448;-70
2023/09/22 08:17:42;;;;;;;56.40;2.33;;;;;;;;;;5154852;27;20550;-70
2023/09/22 08:20:12;;;;;;;56.37;2.40;;;;;;;;;;5155103;27;20440;-70
2023/09/22 08:22:39;;;;;;;56.20;2.30;;;;;;;;;;5154574;27;20923;-71
2023/09/22 08:25:08;;;;;;;56.60;2.50;;;;;;;;;;5154628;27;20919;-71
2023/09/22 08:27:35;;;;;;;56.57;2.57;;;;;;;;;;5154627;27;20491;-70
2023/09/22 08:30:09;;;;;;;57.23;3.00;;;;;;;;;;5154573;27;20451;-71
2023/09/22 08:32:37;;;;;;;57.83;3.07;;;;;;;;;;5154339;27;20919;-71
2023/09/22 08:35:05;;;;;;;55.97;2.10;;;;;;;;;;5154857;27;20443;-71
2023/09/22 08:37:33;;;;;;;56.23;2.30;;;;;;;;;;5154269;27;20491;-70
2023/09/22 08:40:01;;;;;;;56.40;2.40;;;;;;;;;;5154112;27;20480;-71
2023/09/22 08:42:28;;;;;;;56.17;2.20;;;;;;;;;;5154208;27;20516;-70
2023/09/22 08:44:57;;;;;;;56.43;2.30;;;;;;;;;;5154174;27;20440;-71
2023/09/22 08:47:25;;;;;;;56.30;2.40;;;;;;;;;;5154084;27;20994;-71
2023/09/22 08:49:53;;;;;;;56.33;2.10;;;;;;;;;;5154031;27;20452;-71
2023/09/22 08:52:22;;;;;;;56.30;2.07;;;;;;;;;;5154080;27;20586;-70
2023/09/22 08:54:49;;;;;;;58.20;2.30;;;;;;;;;;5154123;27;20523;-69
2023/09/22 08:57:17;;;;;;;56.50;2.30;;;;;;;;;;5153944;27;20463;-70
2023/09/22 08:59:45;;;;;;;56.57;2.60;;;;;;;;;;5153914;27;20451;-70
2023/09/22 09:02:12;;;;;;;56.37;2.30;;;;;;;;;;5154297;27;20696;-71
2023/09/22 09:04:40;;;;;;;56.30;2.20;;;;;;;;;;5154115;27;20897;-70
2023/09/22 09:07:08;;;;;;;56.30;2.40;;;;;;;;;;5153870;27;21038;-70
2023/09/22 09:09:43;;;;;;;56.27;2.23;;;;;;;;;;5154156;27;20448;-71
2023/09/22 09:12:11;;;;;;;56.10;2.10;;;;;;;;;;5153742;27;20485;-71
2023/09/22 09:14:39;;;;;;;55.97;2.20;;;;;;;;;;5153922;27;20448;-71
2023/09/22 09:17:18;;;;;;;56.03;1.90;;;;;;;;;;5153694;27;20500;-71
2023/09/22 09:19:47;;;;;;;56.03;2.10;;;;;;;;;;5124864;27;20467;-69
2023/09/22 09:22:15;;;;;;;56.07;2.10;;;;;;;;;;5133046;27;20732;-69
2023/09/22 09:24:43;;;;;;;56.27;2.07;;;;;;;;;;5132656;27;20437;-69
2023/09/22 09:27:21;;;;;;;56.53;2.20;;;;;;;;;;5133030;27;20470;-69
2023/09/22 09:29:50;;;;;;;56.03;2.00;;;;;;;;;;5132714;27;20444;-70
2023/09/22 09:32:24;;;;;;;56.63;2.30;;;;;;;;;;5132651;27;20999;-70
2023/09/22 09:34:52;;;;;;;56.10;2.20;;;;;;;;;;5132676;27;20436;-69
2023/09/22 09:37:21;;;;;;;56.07;2.23;;;;;;;;;;5132303;27;20467;-70
2023/09/22 09:39:49;;;;;;;56.30;2.30;;;;;;;;;;5132596;27;20852;-70
2023/09/22 09:42:18;;;;;;;56.00;2.10;;;;;;;;;;5132585;27;20761;-70
2023/09/22 09:44:48;;;;;;;56.30;2.30;;;;;;;;;;5132594;27;20449;-70
2023/09/22 09:47:21;;;;;;;56.30;2.20;;;;;;;;;;5132672;27;20485;-70
2023/09/22 09:49:51;;;;;;;56.23;2.20;;;;;;;;;;5132179;27;20590;-69
2023/09/22 09:52:23;;;;;;;56.23;2.00;;;;;;;;;;5132349;27;20480;-70
2023/09/22 09:54:54;;;;;;;56.13;1.97;;;;;;;;;;5132502;27;20451;-70
2023/09/22 09:57:23;;;;;;;56.30;2.10;;;;;;;;;;5132018;27;20492;-70
2023/09/22 09:59:50;;;;;;;55.87;2.00;;;;;;;;;;5132164;27;20444;-70
2023/09/22 10:02:20;;;;;;;57.10;2.50;;;;;;;;;;5132503;27;20549;-70
2023/09/22 10:04:48;;;;;;;56.13;2.10;;;;;;;;;;5132419;27;20449;-70
2023/09/22 10:07:16;;;;;;;55.97;1.97;;;;;;;;;;5132308;27;20457;-70
2023/09/22 10:09:45;;;;;;;56.17;2.03;;;;;;;;;;5131822;27;20788;-70
2023/09/22 10:12:13;;;;;;;56.40;1.97;;;;;;;;;;5132105;27;20470;-70
2023/09/22 10:14:43;;;;;;;56.23;2.20;;;;;;;;;;5131856;27;20476;-70
2023/09/22 10:17:21;;;;;;;56.40;2.10;;;;;;;;;;5131992;27;20464;-70
2023/09/22 10:19:48;;;;;;;56.07;1.87;;;;;;;;;;5136853;27;20429;-69
2023/09/22 10:22:15;;;;;;;56.17;1.93;;;;;;;;;;5152913;27;20470;-70
2023/09/22 10:24:43;;;;;;;56.70;2.47;;;;;;;;;;5133718;27;20444;-70
2023/09/22 10:27:15;;;;;;;56.37;2.20;;;;;;;;;;5132368;27;20464;-70
2023/09/22 10:29:45;;;;;;;56.13;2.00;;;;;;;;;;5132050;27;20813;-70
2023/09/22 10:32:34;;;;;;;56.37;2.33;;;;;;;;;;5132203;27;20608;-70
2023/09/22 10:35:05;;;;;;;56.10;2.00;;;;;;;;;;5127208;27;20522;-70
2023/09/22 10:37:35;;;;;;;56.30;2.10;;;;;;;;;;5134353;27;20478;-69
2023/09/22 10:40:08;;;;;;;56.70;2.00;;;;;;;;;;5136187;27;20484;-70
2023/09/22 10:42:41;;;;;;;56.70;2.33;;;;;;;;;;5136161;27;20755;-70
2023/09/22 10:45:09;;;;;;;56.27;1.80;;;;;;;;;;5135792;27;20448;-69
2023/09/22 10:47:36;;;;;;;56.20;1.90;;;;;;;;;;5135692;27;20464;-70
2023/09/22 10:50:10;;;;;;;56.07;2.10;;;;;;;;;;5135594;27;20448;-70
2023/09/22 10:52:37;;;;;;;58.17;3.43;;;;;;;;;;5136061;27;20572;-70
2023/09/22 10:55:05;;;;;;;56.20;2.00;;;;;;;;;;5135914;27;20452;-70
2023/09/22 10:57:33;;;;;;;56.20;2.47;;;;;;;;;;5135413;27;20469;-69
2023/09/22 11:00:06;;;;;;;56.40;2.00;;;;;;;;;;5135511;27;20448;-70
2023/09/22 11:02:33;;;;;;;56.37;2.30;;;;;;;;;;5135540;27;20455;-70
2023/09/22 11:05:00;;;;;;;56.03;2.10;;;;;;;;;;5135519;27;20964;-69
2023/09/22 11:07:31;;;;;;;56.20;2.00;;;;;;;;;;5135364;27;20464;-70
2023/09/22 11:09:59;;;;;;;56.83;2.30;;;;;;;;;;5135668;27;20445;-70
2023/09/22 11:12:27;;;;;;;56.07;2.13;;;;;;;;;;5135254;27;20535;-70
2023/09/22 11:14:54;;;;;;;56.00;1.90;;;;;;;;;;5135493;27;20444;-70
2023/09/22 11:17:22;;;;;;;56.30;2.00;;;;;;;;;;5135419;27;20471;-70
2023/09/22 11:19:53;;;;;;;56.30;1.90;;;;;;;;;;5126876;27;20451;-72
2023/09/22 11:22:21;;;;;;;57.00;2.30;;;;;;;;;;5135190;27;20459;-71
2023/09/22 11:24:48;;;;;;;56.97;2.37;;;;;;;;;;5135058;27;20544;-71
2023/09/22 11:27:15;;;;;;;56.30;2.27;;;;;;;;;;5134991;27;20475;-72
2023/09/22 11:29:42;;;;;;;56.17;1.70;;;;;;;;;;5135157;27;20549;-71
2023/09/22 11:32:10;;;;;;;56.30;2.00;;;;;;;;;;5135274;27;20448;-71
2023/09/22 11:34:48;;;;;;;56.17;1.97;;;;;;;;;;5135093;27;20488;-72
2023/09/22 11:37:15;;;;;;;56.07;1.70;;;;;;;;;;5135229;27;20496;-71
2023/09/22 11:39:43;;;;;;;56.47;2.00;;;;;;;;;;5134491;27;20932;-68
2023/09/22 11:42:10;;;;;;;56.40;2.40;;;;;;;;;;5134648;27;20553;-70
2023/09/22 11:44:37;;;;;;;56.20;2.10;;;;;;;;;;5134805;27;20462;-70
2023/09/22 11:47:04;;;;;;;56.40;2.00;;;;;;;;;;5134807;27;20464;-71
2023/09/22 11:49:36;;;;;;;56.27;2.20;;;;;;;;;;5133304;27;20894;-70
2023/09/22 11:52:05;;;;;;;56.07;1.70;;;;;;;;;;5134700;27;20813;-71
2023/09/22 11:54:34;;;;;;;56.40;1.93;;;;;;;;;;5134309;27;20485;-71
2023/09/22 11:57:03;;;;;;;56.07;2.00;;;;;;;;;;5134346;27;20551;-70
2023/09/22 11:59:31;;;;;;;56.10;1.90;;;;;;;;;;5134470;27;20448;-70
2023/09/22 12:02:00;;;;;;;55.97;1.90;;;;;;;;;;5134350;27;20449;-71
2023/09/22 12:04:27;;;;;;;57.00;2.20;;;;;;;;;;5134369;27;20453;-72
2023/09/22 12:06:55;;;;;;;56.03;1.90;;;;;;;;;;5133986;27;20467;-71
2023/09/22 12:09:23;;;;;;;56.23;2.00;;;;;;;;;;5134258;27;20602;-70
2023/09/22 12:11:51;;;;;;;56.13;1.80;;;;;;;;;;5134654;27;20445;-71
2023/09/22 12:14:18;;;;;;;55.97;1.90;;;;;;;;;;5134373;27;20491;-71
2023/09/22 12:16:45;;;;;;;56.20;1.87;;;;;;;;;;5133941;27;20493;-71
2023/09/22 12:19:14;;;;;;;56.20;1.90;;;;;;;;;;5134111;27;20509;-70
2023/09/22 12:21:41;;;;;;;56.37;2.00;;;;;;;;;;5134136;27;20452;-71
2023/09/22 12:24:08;;;;;;;56.10;2.00;;;;;;;;;;5134280;27;20501;-70
2023/09/22 12:26:37;;;;;;;56.40;2.00;;;;;;;;;;5133856;27;20931;-72
2023/09/22 12:29:05;;;;;;;56.03;1.97;;;;;;;;;;5147089;27;20480;-70
2023/09/22 12:31:33;;;;;;;56.07;1.87;;;;;;;;;;5149713;27;20452;-71
2023/09/22 12:34:00;;;;;;;56.87;2.50;;;;;;;;;;5134125;27;20480;-71
2023/09/22 12:36:27;;;;;;;56.47;2.23;;;;;;;;;;5134017;27;20526;-70
2023/09/22 12:38:55;;;;;;;56.13;1.80;;;;;;;;;;5133903;27;20448;-71
2023/09/22 12:41:22;;;;;;;56.27;2.20;;;;;;;;;;5134054;27;20455;-72
2023/09/22 12:43:50;;;;;;;56.07;2.10;;;;;;;;;;5133596;27;20451;-71
2023/09/22 12:46:17;;;;;;;56.60;2.30;;;;;;;;;;5133664;27;20474;-71
2023/09/22 12:48:44;;;;;;;56.10;1.80;;;;;;;;;;5133153;27;20464;-71
2023/09/22 12:51:11;;;;;;;56.20;1.80;;;;;;;;;;5133614;27;20449;-70
2023/09/22 12:53:38;;;;;;;56.27;1.90;;;;;;;;;;5133509;27;20856;-71
2023/09/22 12:56:05;;;;;;;55.67;1.80;;;;;;;;;;5133945;27;20441;-70
2023/09/22 12:58:34;;;;;;;55.40;1.80;;;;;;;;;;5133226;27;20464;-70
2023/09/22 13:01:04;;;;;;;56.00;1.70;;;;;;;;;;5133104;27;20921;-71
2023/09/22 13:03:33;;;;;;;55.77;1.50;;;;;;;;;;5133420;27;20448;-71
2023/09/22 13:06:02;;;;;;;55.97;1.70;;;;;;;;;;5133611;27;20445;-71
2023/09/22 13:08:29;;;;;;;55.83;1.70;;;;;;;;;;5133329;27;20464;-70
2023/09/22 13:10:56;;;;;;;56.10;1.90;;;;;;;;;;5133667;27;20489;-71
2023/09/22 13:13:23;;;;;;;55.90;1.70;;;;;;;;;;5133176;27;20492;-71
2023/09/22 13:15:52;;;;;;;56.20;1.73;;;;;;;;;;5132952;27;20806;-71
2023/09/22 13:18:20;;;;;;;56.20;1.80;;;;;;;;;;5133082;27;20702;-71
2023/09/22 13:20:47;;;;;;;56.60;2.20;;;;;;;;;;5132853;27;20835;-71
2023/09/22 13:23:15;;;;;;;56.07;1.80;;;;;;;;;;5132857;27;20441;-71
2023/09/22 13:25:43;;;;;;;56.97;2.40;;;;;;;;;;5130402;27;20540;-71
2023/09/22 13:28:11;;;;;;;56.30;1.90;;;;;;;;;;5131652;27;20461;-71
2023/09/22 13:30:42;;;;;;;56.10;2.10;;;;;;;;;;5132753;27;20441;-71
2023/09/22 13:33:09;;;;;;;56.27;1.90;;;;;;;;;;5132615;27;20828;-71
2023/09/22 13:35:38;;;;;;;56.20;2.00;;;;;;;;;;5132572;27;20449;-71
2023/09/22 13:38:05;;;;;;;56.40;1.93;;;;;;;;;;5132239;27;20964;-71
2023/09/22 13:40:32;;;;;;;56.10;1.80;;;;;;;;;;5132233;27;20816;-71
2023/09/22 13:43:00;;;;;;;56.07;1.60;;;;;;;;;;5132466;27;20440;-71
2023/09/22 13:45:28;;;;;;;56.20;2.20;;;;;;;;;;5132674;27;20452;-71
2023/09/22 13:47:55;;;;;;;56.17;1.90;;;;;;;;;;5132422;27;20457;-71
2023/09/22 13:50:22;;;;;;;56.00;1.80;;;;;;;;;;5132226;27;20453;-71
2023/09/22 13:52:50;;;;;;;56.07;1.70;;;;;;;;;;5132543;27;20818;-71
2023/09/22 13:55:17;;;;;;;55.77;1.70;;;;;;;;;;5132061;27;20484;-71
2023/09/22 13:57:45;;;;;;;55.80;1.70;;;;;;;;;;5132052;27;20465;-71
2023/09/22 14:00:12;;;;;;;55.57;1.70;;;;;;;;;;5132242;27;20722;-69
2023/09/22 14:02:40;;;;;;;56.00;1.90;;;;;;;;;;5131957;27;20532;-71
2023/09/22 14:05:09;;;;;;;56.17;1.93;;;;;;;;;;5132031;27;20490;-69
2023/09/22 14:07:37;;;;;;;55.87;1.67;;;;;;;;;;5131644;27;20464;-69
2023/09/22 14:10:05;;;;;;;55.90;1.83;;;;;;;;;;5131780;27;20963;-70
2023/09/22 14:12:33;;;;;;;56.40;2.30;;;;;;;;;;5131376;27;20885;-69
2023/09/22 14:15:00;;;;;;;56.10;2.00;;;;;;;;;;5131903;27;20577;-73
2023/09/22 14:17:27;;;;;;;56.17;1.87;;;;;;;;;;5131598;27;20473;-70
2023/09/22 14:19:54;;;;;;;55.67;1.90;;;;;;;;;;5131471;27;20917;-71
2023/09/22 14:22:21;;;;;;;55.80;1.87;;;;;;;;;;5131898;27;20441;-70
2023/09/22 14:24:49;;;;;;;56.20;1.80;;;;;;;;;;5131598;27;20467;-70
2023/09/22 14:27:17;;;;;;;56.70;2.00;;;;;;;;;;5131786;27;20832;-71
2023/09/22 14:29:44;;;;;;;56.00;2.00;;;;;;;;;;5131471;27;20961;-70
2023/09/22 14:32:12;;;;;;;57.77;2.20;;;;;;;;;;5131689;27;20597;-72
2023/09/22 14:34:39;;;;;;;56.00;1.70;;;;;;;;;;5131506;27;20484;-71
2023/09/22 14:37:06;;;;;;;55.87;1.70;;;;;;;;;;5131324;27;20472;-70